sensor_id;sensor_type;location;lat;lon;timestamp;pressure;altitude;pressure_sealevel;temperature;humidity
78986;BME280;68384;55.750;48.746;2023-09-07T00:01:21;98434.97;;;12.50;88.45
78986;BME280;68384;55.750;48.746;2023-09-07T00:03:48;98435.84;;;12.55;88.32
78986;BME280;68384;55.750;48.746;2023-09-07T00:06:16;98440.19;;;12.56;88.08
78986;BME280;68384;55.750;48.746;2023-09-07T00:08:44;98435.00;;;12.55;88.26
78986;BME280;68384;55.750;48.746;2023-09-07T00:11:11;98444.50;;;12.53;88.28
78986;BME280;68384;55.750;48.746;2023-09-07T00:13:39;98445.38;;;12.50;88.12
78986;BME280;68384;55.750;48.746;2023-09-07T00:16:06;98438.47;;;12.49;88.28
78986;BME280;68384;55.750;48.746;2023-09-07T00:18:34;98446.22;;;12.42;87.68
78986;BME280;68384;55.750;48.746;2023-09-07T00:21:02;98450.56;;;12.41;88.18
78986;BME280;68384;55.750;48.746;2023-09-07T00:23:29;98462.66;;;12.33;88.22
78986;BME280;68384;55.750;48.746;2023-09-07T00:25:57;98464.38;;;12.19;84.80
78986;BME280;68384;55.750;48.746;2023-09-07T00:28:24;98473.00;;;12.15;85.38
78986;BME280;68384;55.750;48.746;2023-09-07T00:30:52;98471.25;;;12.11;85.03
78986;BME280;68384;55.750;48.746;2023-09-07T00:33:20;98485.03;;;12.04;84.82
78986;BME280;68384;55.750;48.746;2023-09-07T00:35:47;98485.84;;;11.94;84.53
78986;BME280;68384;55.750;48.746;2023-09-07T00:38:14;98492.75;;;11.86;84.66
78986;BME280;68384;55.750;48.746;2023-09-07T00:40:45;98484.94;;;11.83;84.65
78986;BME280;68384;55.750;48.746;2023-09-07T00:43:12;98487.47;;;11.77;84.87
78986;BME280;68384;55.750;48.746;2023-09-07T00:45:40;98475.31;;;11.68;84.02
78986;BME280;68384;55.750;48.746;2023-09-07T00:48:08;98497.75;;;11.59;83.38
78986;BME280;68384;55.750;48.746;2023-09-07T00:50:35;98491.69;;;11.55;82.89
78986;BME280;68384;55.750;48.746;2023-09-07T00:53:03;98490.72;;;11.44;82.99
78986;BME280;68384;55.750;48.746;2023-09-07T00:55:33;98488.97;;;11.37;83.65
78986;BME280;68384;55.750;48.746;2023-09-07T00:58:03;98513.16;;;11.36;84.19
78986;BME280;68384;55.750;48.746;2023-09-07T01:00:31;98513.13;;;11.31;83.79
78986;BME280;68384;55.750;48.746;2023-09-07T01:02:59;98494.13;;;11.34;84.34
78986;BME280;68384;55.750;48.746;2023-09-07T01:05:34;98495.78;;;11.27;84.73
78986;BME280;68384;55.750;48.746;2023-09-07T01:08:12;98514.78;;;11.20;84.54
78986;BME280;68384;55.750;48.746;2023-09-07T01:10:42;98496.59;;;11.19;84.40
78986;BME280;68384;55.750;48.746;2023-09-07T01:13:09;98513.88;;;11.15;84.73
78986;BME280;68384;55.750;48.746;2023-09-07T01:15:37;98506.91;;;11.10;83.94
78986;BME280;68384;55.750;48.746;2023-09-07T01:18:05;98503.41;;;11.08;84.31
78986;BME280;68384;55.750;48.746;2023-09-07T01:20:51;98499.03;;;11.02;84.79
78986;BME280;68384;55.750;48.746;2023-09-07T01:23:19;98509.41;;;11.01;84.69
78986;BME280;68384;55.750;48.746;2023-09-07T01:25:48;98500.78;;;11.02;84.99
78986;BME280;68384;55.750;48.746;2023-09-07T01:28:15;98518.94;;;11.02;85.26
78986;BME280;68384;55.750;48.746;2023-09-07T01:30:43;98510.22;;;10.94;85.30
78986;BME280;68384;55.750;48.746;2023-09-07T01:33:12;98506.78;;;10.96;85.64
78986;BME280;68384;55.750;48.746;2023-09-07T01:35:40;98503.28;;;10.94;86.13
78986;BME280;68384;55.750;48.746;2023-09-07T01:38:08;98513.59;;;10.86;85.38
78986;BME280;68384;55.750;48.746;2023-09-07T01:40:35;98527.38;;;10.82;85.86
78986;BME280;68384;55.750;48.746;2023-09-07T01:43:03;98522.97;;;10.75;86.22
78986;BME280;68384;55.750;48.746;2023-09-07T01:45:30;98510.84;;;10.73;86.72
78986;BME280;68384;55.750;48.746;2023-09-07T01:47:59;98517.78;;;10.75;86.90
78986;BME280;68384;55.750;48.746;2023-09-07T01:50:26;98514.34;;;10.76;86.99
78986;BME280;68384;55.750;48.746;2023-09-07T01:52:54;98510.00;;;10.75;87.05
78986;BME280;68384;55.750;48.746;2023-09-07T01:55:21;98502.28;;;10.77;87.39
78986;BME280;68384;55.750;48.746;2023-09-07T01:57:48;98501.38;;;10.72;86.68
78986;BME280;68384;55.750;48.746;2023-09-07T02:00:16;98517.75;;;10.71;86.67
78986;BME280;68384;55.750;48.746;2023-09-07T02:02:43;98522.00;;;10.67;86.88
78986;BME280;68384;55.750;48.746;2023-09-07T02:05:10;98516.00;;;10.70;86.82
78986;BME280;68384;55.750;48.746;2023-09-07T02:07:37;98512.53;;;10.69;87.47
78986;BME280;68384;55.750;48.746;2023-09-07T02:10:05;98517.72;;;10.69;87.66
78986;BME280;68384;55.750;48.746;2023-09-07T02:12:33;98515.06;;;10.65;88.02
78986;BME280;68384;55.750;48.746;2023-09-07T02:15:02;98502.09;;;10.65;87.40
78986;BME280;68384;55.750;48.746;2023-09-07T02:17:33;98519.25;;;10.52;87.73
78986;BME280;68384;55.750;48.746;2023-09-07T02:20:01;98516.72;;;10.58;87.37
78986;BME280;68384;55.750;48.746;2023-09-07T02:22:34;98513.16;;;10.49;86.38
78986;BME280;68384;55.750;48.746;2023-09-07T02:25:02;98528.69;;;10.50;86.56
78986;BME280;68384;55.750;48.746;2023-09-07T02:27:30;98519.22;;;10.49;86.10
78986;BME280;68384;55.750;48.746;2023-09-07T02:29:57;98519.19;;;10.48;85.57
78986;BME280;68384;55.750;48.746;2023-09-07T02:32:25;98557.13;;;10.43;85.13
78986;BME280;68384;55.750;48.746;2023-09-07T02:34:52;98539.81;;;10.40;84.95
78986;BME280;68384;55.750;48.746;2023-09-07T02:37:20;98533.75;;;10.40;85.10
78986;BME280;68384;55.750;48.746;2023-09-07T02:39:47;98538.06;;;10.38;85.52
78986;BME280;68384;55.750;48.746;2023-09-07T02:42:15;98526.81;;;10.37;85.72
78986;BME280;68384;55.750;48.746;2023-09-07T02:44:42;98520.00;;;10.44;85.75
78986;BME280;68384;55.750;48.746;2023-09-07T02:47:09;98532.09;;;10.42;85.95
78986;BME280;68384;55.750;48.746;2023-09-07T02:49:39;98539.91;;;10.45;85.90
78986;BME280;68384;55.750;48.746;2023-09-07T02:52:07;98534.72;;;10.48;85.88
78986;BME280;68384;55.750;48.746;2023-09-07T02:54:34;98529.59;;;10.51;85.43
78986;BME280;68384;55.750;48.746;2023-09-07T02:57:01;98533.88;;;10.50;84.96
78986;BME280;68384;55.750;48.746;2023-09-07T02:59:29;98533.88;;;10.47;85.21
78986;BME280;68384;55.750;48.746;2023-09-07T03:01:56;98530.50;;;10.53;85.04
78986;BME280;68384;55.750;48.746;2023-09-07T03:04:24;98524.44;;;10.52;84.85
78986;BME280;68384;55.750;48.746;2023-09-07T03:06:51;98535.69;;;10.54;84.78
78986;BME280;68384;55.750;48.746;2023-09-07T03:09:19;98538.31;;;10.57;84.29
78986;BME280;68384;55.750;48.746;2023-09-07T03:11:46;98546.84;;;10.49;83.72
78986;BME280;68384;55.750;48.746;2023-09-07T03:14:14;98537.44;;;10.57;83.97
78986;BME280;68384;55.750;48.746;2023-09-07T03:16:42;98541.75;;;10.56;83.83
78986;BME280;68384;55.750;48.746;2023-09-07T03:19:09;98543.38;;;10.47;83.85
78986;BME280;68384;55.750;48.746;2023-09-07T03:21:37;98547.69;;;10.48;83.85
78986;BME280;68384;55.750;48.746;2023-09-07T03:24:05;98545.13;;;10.49;83.52
78986;BME280;68384;55.750;48.746;2023-09-07T03:26:32;98558.03;;;10.48;83.77
78986;BME280;68384;55.750;48.746;2023-09-07T03:29:00;98573.56;;;10.45;83.63
78986;BME280;68384;55.750;48.746;2023-09-07T03:31:27;98565.78;;;10.43;83.50
78986;BME280;68384;55.750;48.746;2023-09-07T03:33:55;98564.09;;;10.47;83.82
78986;BME280;68384;55.750;48.746;2023-09-07T03:36:22;98558.84;;;10.42;83.63
78986;BME280;68384;55.750;48.746;2023-09-07T03:38:50;98563.09;;;10.37;83.13
78986;BME280;68384;55.750;48.746;2023-09-07T03:41:17;98563.19;;;10.42;82.89
78986;BME280;68384;55.750;48.746;2023-09-07T03:43:45;98571.88;;;10.47;82.84
78986;BME280;68384;55.750;48.746;2023-09-07T03:46:12;98576.97;;;10.41;81.76
78986;BME280;68384;55.750;48.746;2023-09-07T03:48:40;98564.00;;;10.39;82.43
78986;BME280;68384;55.750;48.746;2023-09-07T03:51:08;98588.16;;;10.38;82.42
78986;BME280;68384;55.750;48.746;2023-09-07T03:53:35;98561.44;;;10.41;82.32
78986;BME280;68384;55.750;48.746;2023-09-07T03:56:03;98573.66;;;10.54;81.79
78986;BME280;68384;55.750;48.746;2023-09-07T03:58:33;98568.41;;;10.48;81.86
78986;BME280;68384;55.750;48.746;2023-09-07T04:01:00;98571.16;;;10.60;80.84
78986;BME280;68384;55.750;48.746;2023-09-07T04:03:29;98579.81;;;10.60;79.74
78986;BME280;68384;55.750;48.746;2023-09-07T04:05:56;98568.41;;;10.45;79.79
78986;BME280;68384;55.750;48.746;2023-09-07T04:08:24;98575.38;;;10.52;79.68
78986;BME280;68384;55.750;48.746;2023-09-07T04:10:51;98572.63;;;10.40;79.24
78986;BME280;68384;55.750;48.746;2023-09-07T04:13:18;98583.06;;;10.44;79.53
78986;BME280;68384;55.750;48.746;2023-09-07T04:15:45;98583.00;;;10.40;79.95
78986;BME280;68384;55.750;48.746;2023-09-07T04:18:15;98581.22;;;10.37;79.56
78986;BME280;68384;55.750;48.746;2023-09-07T04:20:45;98594.22;;;10.40;79.84
78986;BME280;68384;55.750;48.746;2023-09-07T04:23:14;98604.44;;;10.29;79.66
78986;BME280;68384;55.750;48.746;2023-09-07T04:25:41;98628.59;;;10.25;79.91
78986;BME280;68384;55.750;48.746;2023-09-07T04:28:09;98617.31;;;10.23;80.29
78986;BME280;68384;55.750;48.746;2023-09-07T04:30:40;98600.94;;;10.24;79.61
78986;BME280;68384;55.750;48.746;2023-09-07T04:33:07;98595.75;;;10.24;79.97
78986;BME280;68384;55.750;48.746;2023-09-07T04:35:38;98609.63;;;10.29;79.52
78986;BME280;68384;55.750;48.746;2023-09-07T04:38:06;98597.66;;;10.38;79.13
78986;BME280;68384;55.750;48.746;2023-09-07T04:40:33;98615.88;;;10.44;78.88
78986;BME280;68384;55.750;48.746;2023-09-07T04:43:01;98615.03;;;10.48;78.97
78986;BME280;68384;55.750;48.746;2023-09-07T04:45:28;98610.72;;;10.47;77.90
78986;BME280;68384;55.750;48.746;2023-09-07T04:47:56;98617.75;;;10.57;77.76
78986;BME280;68384;55.750;48.746;2023-09-07T04:50:23;98612.44;;;10.48;76.98
78986;BME280;68384;55.750;48.746;2023-09-07T04:52:52;98607.41;;;10.55;77.25
78986;BME280;68384;55.750;48.746;2023-09-07T04:55:19;98611.66;;;10.53;77.01
78986;BME280;68384;55.750;48.746;2023-09-07T04:57:47;98612.53;;;10.54;76.90
78986;BME280;68384;55.750;48.746;2023-09-07T05:00:14;98591.09;;;10.64;76.09
78986;BME280;68384;55.750;48.746;2023-09-07T05:02:41;98619.50;;;10.58;75.43
78986;BME280;68384;55.750;48.746;2023-09-07T05:05:10;98615.25;;;10.63;74.95
78986;BME280;68384;55.750;48.746;2023-09-07T05:07:37;98612.69;;;10.66;75.20
78986;BME280;68384;55.750;48.746;2023-09-07T05:10:06;98605.09;;;10.76;74.50
78986;BME280;68384;55.750;48.746;2023-09-07T05:12:35;98609.28;;;10.68;73.44
78986;BME280;68384;55.750;48.746;2023-09-07T05:15:04;98623.03;;;10.64;74.02
78986;BME280;68384;55.750;48.746;2023-09-07T05:17:33;98602.34;;;10.67;74.16
78986;BME280;68384;55.750;48.746;2023-09-07T05:20:01;98610.19;;;10.69;73.39
78986;BME280;68384;55.750;48.746;2023-09-07T05:22:30;98632.69;;;10.73;72.89
78986;BME280;68384;55.750;48.746;2023-09-07T05:24:58;98630.97;;;10.75;73.34
78986;BME280;68384;55.750;48.746;2023-09-07T05:27:28;98606.00;;;10.81;73.55
78986;BME280;68384;55.750;48.746;2023-09-07T05:29:55;98624.28;;;10.92;73.12
78986;BME280;68384;55.750;48.746;2023-09-07T05:32:23;98618.31;;;10.99;72.63
78986;BME280;68384;55.750;48.746;2023-09-07T05:34:50;98630.34;;;10.94;71.64
78986;BME280;68384;55.750;48.746;2023-09-07T05:37:17;98622.47;;;10.85;71.18
78986;BME280;68384;55.750;48.746;2023-09-07T05:39:45;98621.56;;;10.80;71.13
78986;BME280;68384;55.750;48.746;2023-09-07T05:42:13;98642.16;;;10.72;71.61
78986;BME280;68384;55.750;48.746;2023-09-07T05:44:40;98631.81;;;10.72;71.42
78986;BME280;68384;55.750;48.746;2023-09-07T05:47:08;98623.06;;;10.67;72.31
78986;BME280;68384;55.750;48.746;2023-09-07T05:49:35;98617.16;;;10.74;72.62
78986;BME280;68384;55.750;48.746;2023-09-07T05:52:03;98642.25;;;10.77;72.86
78986;BME280;68384;55.750;48.746;2023-09-07T05:54:33;98613.78;;;10.83;71.75
78986;BME280;68384;55.750;48.746;2023-09-07T05:57:00;98638.06;;;10.88;71.07
78986;BME280;68384;55.750;48.746;2023-09-07T05:59:28;98621.72;;;10.94;71.71
78986;BME280;68384;55.750;48.746;2023-09-07T06:01:55;98619.19;;;11.01;71.63
78986;BME280;68384;55.750;48.746;2023-09-07T06:04:23;98620.84;;;10.93;71.73
78986;BME280;68384;55.750;48.746;2023-09-07T06:06:50;98608.84;;;11.04;70.94
78986;BME280;68384;55.750;48.746;2023-09-07T06:09:18;98615.78;;;11.08;70.43
78986;BME280;68384;55.750;48.746;2023-09-07T06:11:45;98614.09;;;11.07;70.13
78986;BME280;68384;55.750;48.746;2023-09-07T06:14:13;98616.75;;;11.16;69.86
78986;BME280;68384;55.750;48.746;2023-09-07T06:16:40;98610.75;;;11.22;68.63
78986;BME280;68384;55.750;48.746;2023-09-07T06:19:08;98619.44;;;11.27;68.61
78986;BME280;68384;55.750;48.746;2023-09-07T06:21:35;98624.75;;;11.37;68.10
78986;BME280;68384;55.750;48.746;2023-09-07T06:24:03;98618.88;;;11.57;67.38
78986;BME280;68384;55.750;48.746;2023-09-07T06:26:30;98621.53;;;11.66;67.00
78986;BME280;68384;55.750;48.746;2023-09-07T06:28:57;98622.31;;;11.56;66.20
78986;BME280;68384;55.750;48.746;2023-09-07T06:31:25;98623.25;;;11.64;66.27
78986;BME280;68384;55.750;48.746;2023-09-07T06:33:52;98620.66;;;11.64;66.16
78986;BME280;68384;55.750;48.746;2023-09-07T06:36:20;98612.09;;;11.72;66.01
78986;BME280;68384;55.750;48.746;2023-09-07T06:39:04;98651.94;;;11.76;64.91
78986;BME280;68384;55.750;48.746;2023-09-07T06:41:31;98631.34;;;12.01;65.26
78986;BME280;68384;55.750;48.746;2023-09-07T06:43:59;98635.78;;;12.09;63.91
78986;BME280;68384;55.750;48.746;2023-09-07T06:46:26;98622.81;;;12.16;63.48
78986;BME280;68384;55.750;48.746;2023-09-07T06:48:54;98628.97;;;12.32;63.56
78986;BME280;68384;55.750;48.746;2023-09-07T06:51:21;98628.91;;;12.21;64.35
78986;BME280;68384;55.750;48.746;2023-09-07T06:53:48;98642.88;;;12.38;63.27
78986;BME280;68384;55.750;48.746;2023-09-07T06:56:23;98653.22;;;12.29;62.83
78986;BME280;68384;55.750;48.746;2023-09-07T06:58:51;98629.84;;;12.28;63.09
78986;BME280;68384;55.750;48.746;2023-09-07T07:01:19;98647.19;;;12.35;63.06
78986;BME280;68384;55.750;48.746;2023-09-07T07:03:46;98642.75;;;12.20;63.34
78986;BME280;68384;55.750;48.746;2023-09-07T07:06:15;98647.19;;;12.36;62.41
78986;BME280;68384;55.750;48.746;2023-09-07T07:08:42;98645.53;;;12.49;62.41
78986;BME280;68384;55.750;48.746;2023-09-07T07:11:10;98659.41;;;12.49;61.76
78986;BME280;68384;55.750;48.746;2023-09-07T07:13:37;98651.44;;;12.25;62.64
78986;BME280;68384;55.750;48.746;2023-09-07T07:16:06;98644.53;;;12.24;63.94
78986;BME280;68384;55.750;48.746;2023-09-07T07:18:33;98648.50;;;11.84;65.62
78986;BME280;68384;55.750;48.746;2023-09-07T07:21:01;98701.66;;;11.32;68.35
78986;BME280;68384;55.750;48.746;2023-09-07T07:23:29;98698.66;;;10.98;71.13
78986;BME280;68384;55.750;48.746;2023-09-07T07:25:57;98686.09;;;10.63;73.20
78986;BME280;68384;55.750;48.746;2023-09-07T07:28:25;98683.97;;;10.37;73.62
78986;BME280;68384;55.750;48.746;2023-09-07T07:30:53;98688.16;;;10.27;74.42
78986;BME280;68384;55.750;48.746;2023-09-07T07:33:22;98696.00;;;10.31;75.41
78986;BME280;68384;55.750;48.746;2023-09-07T07:35:51;98677.91;;;10.35;74.88
78986;BME280;68384;55.750;48.746;2023-09-07T07:38:19;98691.06;;;10.47;73.80
78986;BME280;68384;55.750;48.746;2023-09-07T07:40:47;98700.53;;;10.46;72.82
78986;BME280;68384;55.750;48.746;2023-09-07T07:43:15;98698.88;;;10.51;73.17
78986;BME280;68384;55.750;48.746;2023-09-07T07:45:43;98678.47;;;10.72;73.00
78986;BME280;68384;55.750;48.746;2023-09-07T07:48:10;98711.50;;;10.85;71.04
78986;BME280;68384;55.750;48.746;2023-09-07T07:50:40;98689.94;;;10.89;71.35
78986;BME280;68384;55.750;48.746;2023-09-07T07:53:11;98686.66;;;11.04;70.58
78986;BME280;68384;55.750;48.746;2023-09-07T07:55:40;98684.13;;;11.10;70.04
78986;BME280;68384;55.750;48.746;2023-09-07T07:58:11;98679.91;;;11.21;68.75
78986;BME280;68384;55.750;48.746;2023-09-07T08:00:40;98667.06;;;11.29;68.39
78986;BME280;68384;55.750;48.746;2023-09-07T08:03:08;98681.03;;;11.44;67.61
78986;BME280;68384;55.750;48.746;2023-09-07T08:05:37;98675.16;;;11.59;67.34
78986;BME280;68384;55.750;48.746;2023-09-07T08:08:08;98666.59;;;11.72;66.81
78986;BME280;68384;55.750;48.746;2023-09-07T08:10:36;98688.25;;;11.73;65.99
78986;BME280;68384;55.750;48.746;2023-09-07T08:13:06;98691.56;;;11.58;66.05
78986;BME280;68384;55.750;48.746;2023-09-07T08:15:33;98668.06;;;11.46;66.67
78986;BME280;68384;55.750;48.746;2023-09-07T08:18:03;98655.09;;;11.44;67.40
78986;BME280;68384;55.750;48.746;2023-09-07T08:20:32;98660.22;;;11.38;67.72
78986;BME280;68384;55.750;48.746;2023-09-07T08:23:00;98693.09;;;11.41;66.42
78986;BME280;68384;55.750;48.746;2023-09-07T08:25:31;98678.34;;;11.35;66.33
78986;BME280;68384;55.750;48.746;2023-09-07T08:27:59;98689.63;;;11.39;66.42
78986;BME280;68384;55.750;48.746;2023-09-07T08:30:27;98690.44;;;11.35;66.36
78986;BME280;68384;55.750;48.746;2023-09-07T08:32:54;98670.53;;;11.31;67.76
78986;BME280;68384;55.750;48.746;2023-09-07T08:35:22;98674.84;;;11.30;68.43
78986;BME280;68384;55.750;48.746;2023-09-07T08:37:54;98690.28;;;11.18;68.92
78986;BME280;68384;55.750;48.746;2023-09-07T08:40:22;98676.41;;;11.16;69.40
78986;BME280;68384;55.750;48.746;2023-09-07T08:42:50;98677.31;;;11.20;68.70
78986;BME280;68384;55.750;48.746;2023-09-07T08:45:21;98676.56;;;11.28;69.01
78986;BME280;68384;55.750;48.746;2023-09-07T08:47:49;98674.91;;;11.36;67.83
78986;BME280;68384;55.750;48.746;2023-09-07T08:50:18;98660.09;;;11.28;67.72
78986;BME280;68384;55.750;48.746;2023-09-07T08:52:46;98674.06;;;11.37;67.87
78986;BME280;68384;55.750;48.746;2023-09-07T08:55:18;98676.66;;;11.40;67.32
78986;BME280;68384;55.750;48.746;2023-09-07T08:57:46;98671.53;;;11.46;66.92
78986;BME280;68384;55.750;48.746;2023-09-07T09:00:14;98678.53;;;11.51;67.22
78986;BME280;68384;55.750;48.746;2023-09-07T09:02:46;98674.06;;;11.40;68.15
78986;BME280;68384;55.750;48.746;2023-09-07T09:05:23;98673.28;;;11.47;68.31
78986;BME280;68384;55.750;48.746;2023-09-07T09:08:03;98681.06;;;11.47;67.47
78986;BME280;68384;55.750;48.746;2023-09-07T09:10:31;98684.47;;;11.42;67.10
78986;BME280;68384;55.750;48.746;2023-09-07T09:12:59;98675.78;;;11.38;67.84
78986;BME280;68384;55.750;48.746;2023-09-07T09:15:27;98697.34;;;11.31;68.33
78986;BME280;68384;55.750;48.746;2023-09-07T09:17:54;98699.72;;;11.12;69.62
78986;BME280;68384;55.750;48.746;2023-09-07T09:20:25;98739.22;;;10.91;69.99
78986;BME280;68384;55.750;48.746;2023-09-07T09:22:55;98732.72;;;10.62;70.92
78986;BME280;68384;55.750;48.746;2023-09-07T09:25:23;98721.16;;;10.40;71.97
78986;BME280;68384;55.750;48.746;2023-09-07T09:27:50;98705.63;;;10.40;73.03
78986;BME280;68384;55.750;48.746;2023-09-07T09:30:18;98703.22;;;10.54;73.20
78986;BME280;68384;55.750;48.746;2023-09-07T09:32:46;98700.91;;;10.70;72.74
78986;BME280;68384;55.750;48.746;2023-09-07T09:35:19;98698.53;;;10.87;72.30
78986;BME280;68384;55.750;48.746;2023-09-07T09:37:48;98692.88;;;11.20;70.89
78986;BME280;68384;55.750;48.746;2023-09-07T09:40:18;98688.84;;;11.46;70.42
78986;BME280;68384;55.750;48.746;2023-09-07T09:42:46;98691.72;;;11.75;69.60
78986;BME280;68384;55.750;48.746;2023-09-07T09:45:13;98692.75;;;11.92;67.59
78986;BME280;68384;55.750;48.746;2023-09-07T09:47:41;98699.84;;;12.08;66.66
78986;BME280;68384;55.750;48.746;2023-09-07T09:50:10;98691.19;;;12.12;66.33
78986;BME280;68384;55.750;48.746;2023-09-07T09:52:38;98687.94;;;12.40;64.53
78986;BME280;68384;55.750;48.746;2023-09-07T09:55:07;98687.13;;;12.50;63.46
78986;BME280;68384;55.750;48.746;2023-09-07T09:57:35;98681.94;;;12.53;62.39
78986;BME280;68384;55.750;48.746;2023-09-07T10:00:07;98688.06;;;12.66;62.01
78986;BME280;68384;55.750;48.746;2023-09-07T10:03:07;98690.69;;;12.69;61.49
78986;BME280;68384;55.750;48.746;2023-09-07T10:05:38;98678.66;;;12.82;60.80
78986;BME280;68384;55.750;48.746;2023-09-07T10:08:14;98676.06;;;12.88;60.04
78986;BME280;68384;55.750;48.746;2023-09-07T10:10:43;98677.84;;;13.01;59.11
78986;BME280;68384;55.750;48.746;2023-09-07T10:13:13;98678.72;;;13.01;58.83
78986;BME280;68384;55.750;48.746;2023-09-07T10:15:41;98680.59;;;13.37;58.38
78986;BME280;68384;55.750;48.746;2023-09-07T10:18:12;98683.25;;;13.55;57.85
78986;BME280;68384;55.750;48.746;2023-09-07T10:20:56;98684.09;;;13.48;56.52
78986;BME280;68384;55.750;48.746;2023-09-07T10:23:44;98685.88;;;13.58;56.47
78986;BME280;68384;55.750;48.746;2023-09-07T10:26:17;98683.25;;;13.63;56.06
78986;BME280;68384;55.750;48.746;2023-09-07T10:28:45;98684.13;;;13.45;56.34
78986;BME280;68384;55.750;48.746;2023-09-07T10:31:16;98689.28;;;13.41;56.48
78986;BME280;68384;55.750;48.746;2023-09-07T10:33:45;98703.09;;;13.27;56.79
78986;BME280;68384;55.750;48.746;2023-09-07T10:36:26;98684.78;;;13.05;57.65
78986;BME280;68384;55.750;48.746;2023-09-07T10:38:56;98686.47;;;12.94;58.29
78986;BME280;68384;55.750;48.746;2023-09-07T10:41:24;98679.56;;;12.97;58.09
78986;BME280;68384;55.750;48.746;2023-09-07T10:43:53;98697.63;;;12.72;58.76
78986;BME280;68384;55.750;48.746;2023-09-07T10:46:22;98704.50;;;12.54;61.28
78986;BME280;68384;55.750;48.746;2023-09-07T10:48:51;98718.06;;;12.13;66.72
78986;BME280;68384;55.750;48.746;2023-09-07T10:51:19;98728.97;;;11.80;68.29
78986;BME280;68384;55.750;48.746;2023-09-07T10:53:47;98723.66;;;11.68;69.28
78986;BME280;68384;55.750;48.746;2023-09-07T10:56:15;98714.97;;;11.61;69.51
78986;BME280;68384;55.750;48.746;2023-09-07T10:58:42;98704.56;;;11.63;69.33
78986;BME280;68384;55.750;48.746;2023-09-07T11:01:10;98709.00;;;11.70;69.35
78986;BME280;68384;55.750;48.746;2023-09-07T11:03:41;98708.22;;;11.80;69.00
78986;BME280;68384;55.750;48.746;2023-09-07T11:06:13;98709.25;;;11.97;68.82
78986;BME280;68384;55.750;48.746;2023-09-07T11:08:42;98707.84;;;12.35;67.74
78986;BME280;68384;55.750;48.746;2023-09-07T11:11:09;98695.88;;;12.63;66.84
78986;BME280;68384;55.750;48.746;2023-09-07T11:13:37;98699.53;;;13.00;65.53
78986;BME280;68384;55.750;48.746;2023-09-07T11:16:07;98691.00;;;13.33;63.52
78986;BME280;68384;55.750;48.746;2023-09-07T11:18:35;98689.34;;;13.56;59.12
78986;BME280;68384;55.750;48.746;2023-09-07T11:21:03;98704.94;;;13.57;56.72
78986;BME280;68384;55.750;48.746;2023-09-07T11:23:31;98692.78;;;13.49;56.95
78986;BME280;68384;55.750;48.746;2023-09-07T11:26:07;98688.41;;;13.34;58.16
78986;BME280;68384;55.750;48.746;2023-09-07T11:28:35;98677.94;;;13.30;58.83
78986;BME280;68384;55.750;48.746;2023-09-07T11:31:02;98684.88;;;13.20;58.78
78986;BME280;68384;55.750;48.746;2023-09-07T11:33:33;98693.53;;;13.14;60.71
78986;BME280;68384;55.750;48.746;2023-09-07T11:36:02;98702.19;;;13.16;60.33
78986;BME280;68384;55.750;48.746;2023-09-07T11:38:36;98690.91;;;13.11;60.72
78986;BME280;68384;55.750;48.746;2023-09-07T11:41:05;98693.53;;;13.17;60.99
78986;BME280;68384;55.750;48.746;2023-09-07T11:43:32;98697.91;;;13.26;60.79
78986;BME280;68384;55.750;48.746;2023-09-07T11:46:01;98689.19;;;13.24;59.06
78986;BME280;68384;55.750;48.746;2023-09-07T11:48:31;98691.03;;;13.34;57.06
78986;BME280;68384;55.750;48.746;2023-09-07T11:51:00;98694.50;;;13.48;57.36
78986;BME280;68384;55.750;48.746;2023-09-07T11:53:27;98697.13;;;13.54;57.47
78986;BME280;68384;55.750;48.746;2023-09-07T11:55:55;98707.53;;;13.44;57.76
78986;BME280;68384;55.750;48.746;2023-09-07T11:58:23;98720.53;;;13.44;57.59
78986;BME280;68384;55.750;48.746;2023-09-07T12:00:55;98728.22;;;13.19;57.18
78986;BME280;68384;55.750;48.746;2023-09-07T12:03:23;98750.72;;;13.01;56.83
78986;BME280;68384;55.750;48.746;2023-09-07T12:05:50;98774.81;;;12.73;57.29
78986;BME280;68384;55.750;48.746;2023-09-07T12:08:17;98751.94;;;12.26;59.59
78986;BME280;68384;55.750;48.746;2023-09-07T12:10:44;98771.22;;;11.64;62.13
78986;BME280;68384;55.750;48.746;2023-09-07T12:13:12;98751.00;;;11.35;63.18
78986;BME280;68384;55.750;48.746;2023-09-07T12:15:39;98772.94;;;10.94;66.63
78986;BME280;68384;55.750;48.746;2023-09-07T12:18:07;98808.47;;;10.46;70.24
78986;BME280;68384;55.750;48.746;2023-09-07T12:20:34;98807.91;;;10.12;74.00
78986;BME280;68384;55.750;48.746;2023-09-07T12:23:02;98793.97;;;9.58;78.46
78986;BME280;68384;55.750;48.746;2023-09-07T12:25:29;98802.19;;;9.37;80.55
78986;BME280;68384;55.750;48.746;2023-09-07T12:27:56;98793.06;;;9.13;82.04
78986;BME280;68384;55.750;48.746;2023-09-07T12:30:24;98803.88;;;8.96;83.09
78986;BME280;68384;55.750;48.746;2023-09-07T12:32:51;98789.13;;;8.92;84.20
78986;BME280;68384;55.750;48.746;2023-09-07T12:35:19;98778.72;;;8.89;84.92
78986;BME280;68384;55.750;48.746;2023-09-07T12:37:47;98784.84;;;8.93;85.30
78986;BME280;68384;55.750;48.746;2023-09-07T12:40:14;98784.91;;;8.96;85.88
78986;BME280;68384;55.750;48.746;2023-09-07T12:42:44;98777.25;;;9.00;85.85
78986;BME280;68384;55.750;48.746;2023-09-07T12:45:12;98780.78;;;9.05;85.76
78986;BME280;68384;55.750;48.746;2023-09-07T12:47:42;98781.94;;;9.17;85.42
78986;BME280;68384;55.750;48.746;2023-09-07T12:50:09;98785.38;;;9.16;85.66
78986;BME280;68384;55.750;48.746;2023-09-07T12:52:37;98781.28;;;9.27;85.33
78986;BME280;68384;55.750;48.746;2023-09-07T12:55:06;98785.66;;;9.31;85.67
78986;BME280;68384;55.750;48.746;2023-09-07T12:57:34;98775.47;;;9.38;85.16